createdAt,value
2019-02-28T00:02:12.253Z,47.06
2019-02-28T00:04:43.123Z,47.40
2019-02-28T00:07:17.605Z,47.41
2019-02-28T00:09:45.992Z,47.98
2019-02-28T00:12:16.552Z,48.13
2019-02-28T00:14:47.157Z,48.42
2019-02-28T00:17:17.838Z,48.22
2019-02-28T00:19:48.294Z,48.13
2019-02-28T00:22:18.904Z,48.22
2019-02-28T00:24:49.696Z,48.19
2019-02-28T00:27:21.999Z,47.90
2019-02-28T00:29:52.811Z,47.76
2019-02-28T00:32:24.764Z,47.81
2019-02-28T00:34:55.722Z,47.99
2019-02-28T00:37:26.438Z,48.27
2019-02-28T00:39:57.062Z,48.22
2019-02-28T00:42:27.482Z,48.13
2019-02-28T00:44:57.952Z,48.26
2019-02-28T00:47:28.734Z,48.03
2019-02-28T00:49:59.268Z,47.84
2019-02-28T00:52:32.092Z,47.82
2019-02-28T00:55:02.295Z,47.71
2019-02-28T00:57:33.201Z,47.88
2019-02-28T01:00:05.482Z,48.14
2019-02-28T01:02:36.176Z,47.87
2019-02-28T01:05:06.806Z,47.74
2019-02-28T01:07:37.050Z,47.44
2019-02-28T01:10:09.125Z,47.29
2019-02-28T01:12:39.713Z,46.73
2019-02-28T01:15:11.529Z,47.10
2019-02-28T01:17:42.359Z,47.17
2019-02-28T01:20:16.072Z,46.64
2019-02-28T01:22:45.989Z,46.79
2019-02-28T01:25:16.697Z,47.20
2019-02-28T01:27:47.429Z,47.22
2019-02-28T01:30:18.362Z,47.29
2019-02-28T01:32:50.918Z,47.57
2019-02-28T01:35:21.122Z,47.62
2019-02-28T01:37:52.384Z,47.62
2019-02-28T01:40:23.707Z,48.01
2019-02-28T01:42:55.095Z,48.16
2019-02-28T01:45:25.721Z,48.34
2019-02-28T01:47:56.270Z,48.65
2019-02-28T01:50:29.691Z,48.71
2019-02-28T01:52:58.877Z,48.96
2019-02-28T01:55:30.239Z,48.82
2019-02-28T01:58:00.895Z,49.46
2019-02-28T02:00:31.581Z,49.36
2019-02-28T02:03:03.924Z,49.46
2019-02-28T02:05:34.588Z,49.97
2019-02-28T02:08:07.335Z,50.14
2019-02-28T02:10:37.594Z,50.31
2019-02-28T02:13:08.375Z,50.27
2019-02-28T02:15:39.195Z,50.50
2019-02-28T02:18:10.094Z,50.52
2019-02-28T02:20:40.740Z,50.56
2019-02-28T02:23:11.451Z,50.61
2019-02-28T02:25:42.059Z,50.67
2019-02-28T02:28:12.719Z,50.77
2019-02-28T02:30:50.511Z,50.96
2019-02-28T02:33:15.711Z,50.92
2019-02-28T02:35:46.184Z,51.32
2019-02-28T02:38:16.894Z,50.97
2019-02-28T02:40:47.819Z,51.02
2019-02-28T02:43:21.858Z,51.15
2019-02-28T02:45:50.822Z,51.58
2019-02-28T02:48:21.419Z,51.70
2019-02-28T02:50:52.193Z,51.62
2019-02-28T02:53:22.943Z,51.56
2019-02-28T02:55:53.322Z,51.70
2019-02-28T02:58:27.959Z,51.59
2019-02-28T03:00:56.181Z,51.43
2019-02-28T03:03:26.775Z,51.73
2019-02-28T03:05:57.372Z,51.63
2019-02-28T03:08:32.336Z,51.78
2019-02-28T03:11:00.326Z,51.51
2019-02-28T03:13:31.175Z,51.60
2019-02-28T03:16:01.707Z,51.32
2019-02-28T03:18:32.468Z,51.22
2019-02-28T03:21:03.316Z,51.70
2019-02-28T03:23:38.501Z,51.07
2019-02-28T03:26:07.232Z,51.23
2019-02-28T03:28:38.119Z,51.08
2019-02-28T03:31:14.156Z,51.58
2019-02-28T03:33:41.161Z,51.63
2019-02-28T03:36:15.904Z,52.01
2019-02-28T03:38:48.279Z,52.19
2019-02-28T03:41:18.083Z,52.48
2019-02-28T03:43:49.033Z,52.70
2019-02-28T03:46:19.507Z,52.57
2019-02-28T03:48:50.143Z,52.55
2019-02-28T03:51:20.731Z,52.39
2019-02-28T03:53:55.573Z,52.40
2019-02-28T03:56:23.999Z,52.65
2019-02-28T03:58:54.823Z,52.68
2019-02-28T04:01:25.193Z,52.71
2019-02-28T04:03:58.004Z,52.43
2019-02-28T04:06:28.807Z,52.70
2019-02-28T04:09:07.025Z,52.60
2019-02-28T04:11:32.217Z,52.57
2019-02-28T04:14:02.949Z,52.72
2019-02-28T04:16:33.582Z,52.66
2019-02-28T04:19:04.394Z,52.32
2019-02-28T04:21:35.102Z,52.39
2019-02-28T04:24:12.641Z,51.93
2019-02-28T04:26:38.236Z,51.85
2019-02-28T04:29:08.875Z,51.62
2019-02-28T04:31:39.506Z,51.53
2019-02-28T04:34:13.452Z,51.40
2019-02-28T04:36:42.470Z,51.04
2019-02-28T04:39:12.925Z,51.24
2019-02-28T04:41:43.581Z,51.05
2019-02-28T04:44:15.338Z,51.07
2019-02-28T04:46:46.232Z,51.02
2019-02-28T04:49:21.747Z,50.95
2019-02-28T04:51:48.902Z,50.90
2019-02-28T04:54:19.296Z,50.70
2019-02-28T04:56:50.029Z,50.75
2019-02-28T04:59:20.533Z,50.81
2019-02-28T05:01:51.166Z,50.71
2019-02-28T05:04:21.753Z,50.63
2019-02-28T05:06:55.111Z,50.34
2019-02-28T05:09:24.418Z,50.13
2019-02-28T05:11:55.159Z,50.04
2019-02-28T05:14:25.506Z,49.92
2019-02-28T05:16:56.298Z,49.76
2019-02-28T05:19:27.133Z,49.70
2019-02-28T05:21:57.811Z,49.65
2019-02-28T05:24:28.402Z,49.63
2019-02-28T05:27:00.142Z,49.41
2019-02-28T05:29:31.196Z,49.58
2019-02-28T05:32:01.938Z,49.58
2019-02-28T05:34:32.371Z,49.50
2019-02-28T05:37:02.797Z,49.46
2019-02-28T05:39:33.438Z,49.54
2019-02-28T05:42:03.906Z,49.58
2019-02-28T05:44:34.404Z,49.31
2019-02-28T05:47:04.898Z,49.29
2019-02-28T05:49:35.504Z,49.45
2019-02-28T05:52:08.886Z,48.98
2019-02-28T05:54:39.553Z,48.76
2019-02-28T05:57:10.136Z,49.05
2019-02-28T05:59:40.685Z,49.44
2019-02-28T06:02:11.451Z,49.05
2019-02-28T06:04:41.957Z,49.19
2019-02-28T06:07:12.586Z,49.31
2019-02-28T06:09:45.606Z,49.37
2019-02-28T06:12:15.604Z,49.55
2019-02-28T06:14:46.480Z,49.37
2019-02-28T06:17:17.350Z,49.49
2019-02-28T06:19:49.261Z,48.43
2019-02-28T06:22:19.926Z,48.55
2019-02-28T06:24:50.722Z,48.24
2019-02-28T06:27:21.360Z,48.13
2019-02-28T06:29:51.745Z,47.96
2019-02-28T06:32:23.600Z,47.81
2019-02-28T06:34:54.599Z,47.29
2019-02-28T06:37:25.202Z,46.82
2019-02-28T06:39:58.642Z,45.80
2019-02-28T06:42:28.172Z,45.57
2019-02-28T06:45:02.678Z,44.67
2019-02-28T06:47:32.235Z,45.14
2019-02-28T06:50:03.046Z,44.91
2019-02-28T06:52:33.481Z,43.91
2019-02-28T06:55:04.418Z,44.11
2019-02-28T06:57:34.992Z,43.73
2019-02-28T07:00:06.731Z,43.44
2019-02-28T07:02:38.262Z,42.28
2019-02-28T07:05:08.932Z,40.47
2019-02-28T07:07:39.558Z,40.46
2019-02-28T07:10:12.720Z,40.39
2019-02-28T07:12:43.567Z,39.57
2019-02-28T07:15:14.163Z,38.49
2019-02-28T07:17:46.268Z,35.89
2019-02-28T07:20:17.047Z,35.75
2019-02-28T07:22:47.875Z,33.21
2019-02-28T07:25:18.813Z,33.22
2019-02-28T07:27:49.348Z,33.17
2019-02-28T07:30:20.220Z,33.05
2019-02-28T07:32:51.035Z,33.69
2019-02-28T07:35:21.786Z,34.50
2019-02-28T07:37:54.398Z,34.57
2019-02-28T07:40:24.993Z,35.33
2019-02-28T07:43:00.734Z,34.02
2019-02-28T07:45:34.218Z,34.54
2019-02-28T07:48:07.143Z,33.89
2019-02-28T07:50:43.573Z,33.66
2019-02-28T07:53:14.559Z,33.62
2019-02-28T07:55:48.076Z,33.84
2019-02-28T07:58:18.528Z,33.99
2019-02-28T08:00:52.653Z,35.03
2019-02-28T08:03:21.397Z,34.06
2019-02-28T08:05:51.919Z,34.49
2019-02-28T08:08:39.432Z,34.46
2019-02-28T08:11:13.011Z,34.79
2019-02-28T08:13:44.750Z,35.52
2019-02-28T08:16:15.162Z,35.57
2019-02-28T08:18:55.638Z,36.04
2019-02-28T08:21:32.359Z,35.98
2019-02-28T08:24:05.489Z,36.79
2019-02-28T08:26:38.860Z,36.56
2019-02-28T08:29:11.673Z,36.18
2019-02-28T08:31:41.918Z,36.71
2019-02-28T08:34:12.123Z,36.33
2019-02-28T08:36:43.847Z,36.80
2019-02-28T08:39:23.695Z,37.24
2019-02-28T08:41:54.142Z,37.14
2019-02-28T08:44:25.726Z,36.71
2019-02-28T08:46:58.882Z,36.01
2019-02-28T08:49:29.332Z,35.40
2019-02-28T08:52:02.504Z,34.06
2019-02-28T08:54:34.151Z,33.43
2019-02-28T08:57:04.760Z,33.29
2019-02-28T08:59:57.125Z,33.41
2019-02-28T09:02:27.758Z,33.22
2019-02-28T09:04:57.754Z,32.43
2019-02-28T09:07:29.673Z,32.89
2019-02-28T09:10:02.826Z,32.40
2019-02-28T09:12:34.132Z,31.00
2019-02-28T09:15:11.260Z,30.86
2019-02-28T09:17:58.670Z,30.53
2019-02-28T09:20:27.779Z,29.73
2019-02-28T09:23:02.389Z,29.39
2019-02-28T09:25:31.111Z,29.40
2019-02-28T09:28:01.716Z,27.95
2019-02-28T09:30:38.737Z,27.42
2019-02-28T09:33:09.374Z,26.64
2019-02-28T09:35:45.210Z,26.56
2019-02-28T09:38:13.601Z,26.46
2019-02-28T09:40:44.606Z,25.08
2019-02-28T09:43:15.303Z,25.27
2019-02-28T09:45:50.227Z,24.41
2019-02-28T09:48:20.664Z,24.36
2019-02-28T09:50:51.110Z,24.64
2019-02-28T09:53:21.628Z,25.01
2019-02-28T09:55:52.219Z,24.02
2019-02-28T09:58:22.707Z,24.03
2019-02-28T10:00:53.559Z,23.25
2019-02-28T10:03:24.203Z,23.32
2019-02-28T10:05:54.733Z,22.73
2019-02-28T10:08:25.118Z,21.61
2019-02-28T10:10:55.817Z,21.20
2019-02-28T10:13:26.913Z,20.63
2019-02-28T10:15:57.422Z,20.48
2019-02-28T10:18:27.816Z,19.42
2019-02-28T10:20:59.068Z,17.61
2019-02-28T10:23:29.631Z,15.95
2019-02-28T10:26:00.017Z,15.58
2019-02-28T10:28:30.360Z,14.98
2019-02-28T10:31:00.568Z,13.59
2019-02-28T10:33:30.888Z,13.54
2019-02-28T10:36:01.330Z,13.25
2019-02-28T10:38:32.953Z,13.19
2019-02-28T10:41:03.621Z,13.46
2019-02-28T10:43:34.298Z,13.28
2019-02-28T10:46:04.930Z,13.63
2019-02-28T10:48:41.853Z,13.32
2019-02-28T10:51:14.114Z,13.03
2019-02-28T10:53:40.260Z,12.51
2019-02-28T10:56:11.022Z,11.99
2019-02-28T10:58:41.414Z,11.75
2019-02-28T11:01:13.517Z,11.81
2019-02-28T11:03:44.015Z,11.80
2019-02-28T11:06:14.562Z,11.38
2019-02-28T11:08:47.499Z,11.42
2019-02-28T11:11:17.568Z,10.98
2019-02-28T11:13:47.824Z,11.46
2019-02-28T11:16:20.424Z,12.25
2019-02-28T11:18:49.783Z,13.82
2019-02-28T11:21:20.479Z,14.64
2019-02-28T11:23:51.124Z,15.06
2019-02-28T11:26:21.772Z,14.54
2019-02-28T11:28:52.369Z,14.52
2019-02-28T11:31:22.892Z,14.33
2019-02-28T11:33:53.501Z,13.62
2019-02-28T11:36:24.091Z,12.47
2019-02-28T11:38:55.430Z,11.67
2019-02-28T11:41:26.540Z,12.24
2019-02-28T11:43:57.044Z,11.34
2019-02-28T11:46:27.655Z,11.79
2019-02-28T11:48:58.267Z,11.14
2019-02-28T11:51:30.357Z,11.06
2019-02-28T11:54:00.920Z,10.59
2019-02-28T11:56:31.612Z,10.31
2019-02-28T11:59:02.523Z,11.02
2019-02-28T12:01:33.216Z,10.14
2019-02-28T12:04:03.781Z,10.49
2019-02-28T12:06:34.325Z,10.66
2019-02-28T12:09:06.391Z,10.78
2019-02-28T12:11:37.225Z,10.61
2019-02-28T12:14:07.667Z,11.15
2019-02-28T12:16:38.132Z,11.93
2019-02-28T12:19:08.342Z,13.19
2019-02-28T12:21:38.934Z,12.29
2019-02-28T12:24:09.092Z,14.14
2019-02-28T12:26:39.558Z,14.14
2019-02-28T12:29:13.016Z,12.97
2019-02-28T12:31:41.700Z,12.34
2019-02-28T12:34:12.065Z,13.52
2019-02-28T12:36:42.252Z,13.59
2019-02-28T12:39:12.116Z,12.56
2019-02-28T12:41:42.266Z,12.65
2019-02-28T12:44:15.408Z,13.27
2019-02-28T12:46:45.144Z,12.10
2019-02-28T12:49:15.787Z,12.82
2019-02-28T12:51:46.536Z,13.96
2019-02-28T12:54:16.891Z,13.78
2019-02-28T12:56:47.835Z,14.14
2019-02-28T12:59:18.933Z,13.71
2019-02-28T13:01:49.693Z,14.57
2019-02-28T13:04:20.132Z,14.46
2019-02-28T13:06:50.645Z,15.04
2019-02-28T13:09:20.838Z,15.54
2019-02-28T13:11:51.292Z,14.80
2019-02-28T13:14:21.865Z,15.46
2019-02-28T13:16:54.523Z,16.24
2019-02-28T13:19:24.411Z,15.89
2019-02-28T13:21:55.257Z,15.97
2019-02-28T13:24:25.164Z,16.56
2019-02-28T13:26:55.544Z,16.13
2019-02-28T13:29:28.858Z,16.36
2019-02-28T13:32:01.351Z,16.25
2019-02-28T13:34:32.675Z,17.25
2019-02-28T13:37:03.283Z,18.52
2019-02-28T13:39:33.590Z,19.56
2019-02-28T13:42:04.291Z,20.11
2019-02-28T13:44:36.459Z,20.75
2019-02-28T13:47:09.672Z,20.72
2019-02-28T13:49:39.031Z,21.41
2019-02-28T13:52:09.574Z,22.20
2019-02-28T13:54:42.030Z,23.00
2019-02-28T13:57:12.562Z,23.73
2019-02-28T13:59:42.881Z,23.40
2019-02-28T14:02:13.729Z,23.51
2019-02-28T14:04:44.590Z,23.73
2019-02-28T14:07:14.879Z,24.47
2019-02-28T14:09:45.223Z,24.19
2019-02-28T14:12:17.019Z,24.78
2019-02-28T14:14:47.815Z,25.31
2019-02-28T14:17:18.288Z,25.16
2019-02-28T14:19:48.788Z,24.63
2019-02-28T14:22:19.173Z,25.62
2019-02-28T14:24:49.366Z,25.55
2019-02-28T14:27:21.647Z,24.34
2019-02-28T14:29:53.987Z,24.49
2019-02-28T14:32:24.389Z,24.75
2019-02-28T14:34:57.320Z,24.94
2019-02-28T14:37:26.989Z,24.95
2019-02-28T14:39:57.766Z,24.61
2019-02-28T14:42:28.207Z,24.93
2019-02-28T14:44:58.777Z,25.02
2019-02-28T14:47:29.561Z,25.09
2019-02-28T14:49:59.785Z,24.98
2019-02-28T14:52:30.180Z,24.72
2019-02-28T14:55:00.791Z,24.59
2019-02-28T14:57:31.078Z,25.27
2019-02-28T15:00:06.176Z,25.74
2019-02-28T15:02:33.602Z,26.14
2019-02-28T15:05:04.167Z,26.32
2019-02-28T15:07:35.336Z,26.32
2019-02-28T15:10:08.636Z,26.45
2019-02-28T15:12:38.981Z,26.18
2019-02-28T15:15:14.822Z,26.93
2019-02-28T15:17:44.808Z,26.91
2019-02-28T15:20:15.511Z,26.61
2019-02-28T15:22:46.118Z,27.07
2019-02-28T15:25:18.480Z,27.51
2019-02-28T15:27:50.051Z,27.32
2019-02-28T15:30:22.676Z,27.76
2019-02-28T15:32:54.400Z,27.89
2019-02-28T15:35:25.400Z,28.18
2019-02-28T15:37:57.193Z,27.40
2019-02-28T15:40:29.857Z,28.18
2019-02-28T15:43:00.531Z,28.44
2019-02-28T15:45:31.019Z,28.59
2019-02-28T15:48:01.809Z,28.25
2019-02-28T15:50:32.155Z,28.81
2019-02-28T15:53:02.714Z,28.83
2019-02-28T15:55:35.131Z,28.85
2019-02-28T15:58:05.763Z,29.17
2019-02-28T16:00:37.929Z,29.51
2019-02-28T16:03:08.515Z,29.79
2019-02-28T16:05:42.455Z,29.84
2019-02-28T16:08:10.846Z,29.55
2019-02-28T16:10:52.622Z,29.65
2019-02-28T16:13:13.770Z,29.66
2019-02-28T16:15:46.333Z,29.78
2019-02-28T16:18:17.614Z,29.78
2019-02-28T16:20:48.190Z,29.92
2019-02-28T16:23:18.899Z,30.41
2019-02-28T16:25:50.216Z,30.35
2019-02-28T16:28:20.672Z,30.19
2019-02-28T16:30:51.191Z,30.23
2019-02-28T16:33:24.720Z,30.31
2019-02-28T16:35:53.705Z,30.55
2019-02-28T16:38:24.323Z,30.58
2019-02-28T16:40:57.675Z,30.68
2019-02-28T16:43:27.432Z,30.42
2019-02-28T16:45:58.712Z,30.42
2019-02-28T16:48:29.496Z,30.56
2019-02-28T16:50:59.941Z,30.28
2019-02-28T16:53:30.527Z,29.28
2019-02-28T16:56:02.655Z,29.17
2019-02-28T16:58:33.322Z,28.51
2019-02-28T17:01:03.743Z,28.39
2019-02-28T17:03:34.344Z,28.48
2019-02-28T17:06:05.416Z,28.58
2019-02-28T17:08:42.627Z,28.67
2019-02-28T17:11:14.702Z,29.04
2019-02-28T17:13:50.852Z,28.81
2019-02-28T17:16:49.314Z,28.69
2019-02-28T17:19:21.987Z,29.04
2019-02-28T17:21:52.487Z,28.75
2019-02-28T17:24:26.011Z,28.71
2019-02-28T17:27:25.608Z,29.02
2019-02-28T17:30:02.634Z,29.22
2019-02-28T17:32:33.101Z,29.14
2019-02-28T17:35:04.197Z,29.35
2019-02-28T17:37:34.701Z,29.59
2019-02-28T17:40:05.902Z,29.20
2019-02-28T17:42:38.566Z,29.28
2019-02-28T17:45:21.301Z,29.32
2019-02-28T17:48:19.928Z,29.82
2019-02-28T17:51:06.919Z,29.73
2019-02-28T17:54:17.176Z,30.40
2019-02-28T17:57:27.903Z,30.34
2019-02-28T18:00:36.871Z,30.31
2019-02-28T18:03:36.352Z,30.32
2019-02-28T18:06:52.053Z,30.45
2019-02-28T18:09:48.188Z,30.47
2019-02-28T18:12:46.850Z,30.49
2019-02-28T18:15:28.468Z,30.75
2019-02-28T18:18:45.376Z,30.38
2019-02-28T18:21:50.836Z,30.29
2019-02-28T18:24:51.067Z,30.80
2019-02-28T18:27:47.746Z,30.60
2019-02-28T18:30:51.420Z,32.13
2019-02-28T18:33:21.867Z,32.38
2019-02-28T18:35:52.586Z,31.37
2019-02-28T18:38:23.401Z,31.08
2019-02-28T18:40:54.235Z,31.10
2019-02-28T18:43:27.024Z,31.32
2019-02-28T18:45:57.738Z,31.66
2019-02-28T18:48:28.310Z,31.81
2019-02-28T18:50:59.090Z,31.42
2019-02-28T18:53:29.844Z,31.60
2019-02-28T18:55:59.959Z,31.98
2019-02-28T18:58:30.505Z,32.37
2019-02-28T19:01:01.067Z,32.83
2019-02-28T19:03:32.003Z,33.64
2019-02-28T19:06:02.967Z,32.72
2019-02-28T19:08:33.652Z,33.77
2019-02-28T19:11:04.459Z,33.76
2019-02-28T19:13:36.430Z,34.54
2019-02-28T19:16:07.174Z,35.30
2019-02-28T19:18:37.710Z,35.76
2019-02-28T19:21:08.532Z,35.92
2019-02-28T19:23:39.227Z,34.24
2019-02-28T19:26:09.774Z,33.82
2019-02-28T19:28:40.410Z,32.78
2019-02-28T19:31:12.252Z,32.06
2019-02-28T19:33:42.901Z,31.74
2019-02-28T19:36:15.113Z,31.41
2019-02-28T19:38:45.784Z,31.22
2019-02-28T19:41:16.733Z,30.96
2019-02-28T19:43:47.423Z,31.28
2019-02-28T19:46:17.789Z,30.63
2019-02-28T19:48:48.317Z,30.71
2019-02-28T19:51:18.999Z,30.61
2019-02-28T19:53:51.446Z,30.41
2019-02-28T19:56:22.003Z,29.92
2019-02-28T19:58:52.582Z,30.18
2019-02-28T20:01:23.415Z,30.27
2019-02-28T20:03:53.928Z,30.29
2019-02-28T20:06:24.574Z,29.37
2019-02-28T20:08:55.994Z,29.41
2019-02-28T20:11:27.116Z,29.29
2019-02-28T20:13:57.906Z,29.33
2019-02-28T20:16:28.547Z,28.95
2019-02-28T20:18:59.090Z,28.44
2019-02-28T20:21:29.701Z,28.63
2019-02-28T20:24:01.462Z,28.39
2019-02-28T20:26:32.432Z,28.88
2019-02-28T20:29:02.947Z,27.93
2019-02-28T20:31:33.765Z,28.16
2019-02-28T20:34:04.000Z,28.13
2019-02-28T20:36:34.534Z,28.10
2019-02-28T20:39:06.447Z,27.95
2019-02-28T20:41:36.835Z,27.55
2019-02-28T20:44:07.837Z,27.25
2019-02-28T20:46:38.647Z,26.42
2019-02-28T20:49:09.039Z,26.67
2019-02-28T20:51:39.548Z,26.03
2019-02-28T20:54:10.243Z,26.04
2019-02-28T20:56:40.765Z,26.18
2019-02-28T20:59:11.164Z,25.56
2019-02-28T21:01:41.760Z,25.39
2019-02-28T21:04:12.698Z,25.10
2019-02-28T21:06:43.186Z,25.22
2019-02-28T21:09:15.082Z,24.77
2019-02-28T21:11:45.958Z,24.47
2019-02-28T21:14:16.753Z,24.45
2019-02-28T21:16:47.389Z,24.34
2019-02-28T21:19:18.018Z,24.24
2019-02-28T21:21:48.788Z,24.13
2019-02-28T21:24:19.426Z,24.00
2019-02-28T21:26:49.952Z,24.17
2019-02-28T21:29:20.362Z,24.46
2019-02-28T21:31:50.925Z,24.44
2019-02-28T21:34:21.556Z,24.47
2019-02-28T21:36:52.151Z,24.53
2019-02-28T21:39:22.909Z,24.72
2019-02-28T21:41:53.422Z,24.50
2019-02-28T21:44:24.020Z,24.36
2019-02-28T21:46:54.825Z,24.67
2019-02-28T21:49:25.569Z,24.23
2019-02-28T21:51:56.173Z,24.67
2019-02-28T21:54:26.689Z,24.89
2019-02-28T21:56:57.419Z,25.22
2019-02-28T21:59:28.158Z,24.60
2019-02-28T22:01:58.509Z,24.82
2019-02-28T22:04:31.460Z,25.17
2019-02-28T22:07:02.156Z,25.34
2019-02-28T22:09:32.620Z,25.57
2019-02-28T22:12:03.250Z,25.44
2019-02-28T22:14:34.011Z,25.63
2019-02-28T22:17:04.481Z,25.55
2019-02-28T22:19:35.060Z,25.64
2019-02-28T22:22:05.599Z,25.43
2019-02-28T22:24:36.134Z,25.71
2019-02-28T22:27:06.599Z,25.93
2019-02-28T22:29:36.979Z,26.22
2019-02-28T22:32:23.922Z,25.93
2019-02-28T22:34:54.697Z,25.92
2019-02-28T22:37:27.211Z,26.24
2019-02-28T22:39:57.887Z,25.96
2019-02-28T22:42:28.306Z,25.99
2019-02-28T22:44:58.641Z,25.69
2019-02-28T22:47:29.355Z,25.35
2019-02-28T22:49:59.906Z,25.70
2019-02-28T22:52:30.550Z,26.33
2019-02-28T22:55:03.105Z,26.22
2019-02-28T22:57:33.275Z,26.87
2019-02-28T23:00:11.555Z,26.65
2019-02-28T23:02:42.009Z,26.84
2019-02-28T23:05:12.688Z,26.53
2019-02-28T23:07:43.108Z,26.31
2019-02-28T23:10:13.675Z,26.83
2019-02-28T23:12:44.065Z,25.78
2019-02-28T23:15:14.711Z,25.73
2019-02-28T23:17:45.237Z,25.34
2019-02-28T23:20:15.706Z,25.03
2019-02-28T23:22:46.138Z,25.11
2019-02-28T23:25:16.775Z,24.73
2019-02-28T23:27:47.404Z,25.30
2019-02-28T23:30:37.986Z,25.63
2019-02-28T23:33:15.684Z,25.61
2019-02-28T23:35:47.924Z,25.39
2019-02-28T23:38:18.324Z,25.18
2019-02-28T23:40:48.746Z,25.19
2019-02-28T23:43:19.262Z,24.83
2019-02-28T23:45:49.948Z,24.94
2019-02-28T23:48:20.388Z,24.70
2019-02-28T23:50:51.065Z,24.43
2019-02-28T23:53:21.074Z,23.90
2019-02-28T23:55:51.556Z,24.53
2019-02-28T23:58:21.799Z,24.27
